createdAt,value
2022-10-24T00:01:40.642Z,2.15
2022-10-24T00:04:42.894Z,2.38
2022-10-24T00:07:45.429Z,3.20
2022-10-24T00:10:48.749Z,2.00
2022-10-24T00:13:51.541Z,2.92
2022-10-24T00:16:55.125Z,2.80
2022-10-24T00:19:58.866Z,2.53
2022-10-24T00:23:01.155Z,3.65
2022-10-24T00:26:04.319Z,2.90
2022-10-24T00:29:06.995Z,2.22
2022-10-24T00:32:10.680Z,2.58
2022-10-24T00:35:12.931Z,2.97
2022-10-24T00:38:15.199Z,2.20
2022-10-24T00:41:19.026Z,2.60
2022-10-24T00:44:22.985Z,2.35
2022-10-24T00:47:27.359Z,2.97
2022-10-24T00:50:29.518Z,2.42
2022-10-24T00:53:34.092Z,3.10
2022-10-24T00:56:38.315Z,3.17
2022-10-24T00:59:42.720Z,2.70
2022-10-24T01:02:46.734Z,3.20
2022-10-24T01:06:11.437Z,3.05
2022-10-24T01:09:32.783Z,2.67
2022-10-24T01:12:46.038Z,2.08
2022-10-24T01:15:52.093Z,2.08
2022-10-24T01:19:02.863Z,2.70
2022-10-24T01:22:08.505Z,3.05
2022-10-24T01:25:15.228Z,2.03
2022-10-24T01:28:19.151Z,1.92
2022-10-24T01:31:27.735Z,2.17
2022-10-24T01:34:33.687Z,2.35
2022-10-24T01:37:39.659Z,2.60
2022-10-24T01:40:48.600Z,1.58
2022-10-24T01:47:00.286Z,1.90
2022-10-24T01:50:06.438Z,2.30
2022-10-24T01:53:09.381Z,1.92
2022-10-24T01:56:11.732Z,2.40
2022-10-24T01:59:44.771Z,2.22
2022-10-24T02:02:51.192Z,2.63
2022-10-24T02:05:55.566Z,2.78
2022-10-24T02:09:01.782Z,2.03
2022-10-24T02:12:04.452Z,1.92
2022-10-24T02:15:10.729Z,2.20
2022-10-24T02:18:14.647Z,2.03
2022-10-24T02:21:23.600Z,2.22
2022-10-24T02:24:29.384Z,2.22
2022-10-24T02:27:34.808Z,2.63
2022-10-24T02:30:40.128Z,2.33
2022-10-24T02:33:44.338Z,2.17
2022-10-24T02:36:48.926Z,2.17
2022-10-24T02:39:52.305Z,2.97
2022-10-24T02:42:56.183Z,2.88
2022-10-24T02:45:58.894Z,2.45
2022-10-24T02:49:03.247Z,2.35
2022-10-24T02:52:06.382Z,2.95
2022-10-24T02:55:09.380Z,2.70
2022-10-24T02:58:11.631Z,1.85
2022-10-24T03:01:13.976Z,2.53
2022-10-24T03:04:17.933Z,2.30
2022-10-24T03:07:20.244Z,1.90
2022-10-24T03:10:22.617Z,1.80
2022-10-24T03:13:24.839Z,1.85
2022-10-24T03:16:28.584Z,2.33
2022-10-24T03:19:32.137Z,2.22
2022-10-24T03:22:34.351Z,1.95
2022-10-24T03:25:36.568Z,1.60
2022-10-24T03:28:39.435Z,1.75
2022-10-24T03:31:41.671Z,2.20
2022-10-24T03:34:45.253Z,1.77
2022-10-24T03:37:47.464Z,1.77
2022-10-24T03:40:49.793Z,1.80
2022-10-24T03:43:56.539Z,2.20
2022-10-24T03:46:59.059Z,1.38
2022-10-24T03:50:03.557Z,1.70
2022-10-24T03:53:05.966Z,1.20
2022-10-24T03:56:08.377Z,1.83
2022-10-24T03:59:10.914Z,1.58
2022-10-24T04:02:14.179Z,1.60
2022-10-24T04:05:18.228Z,1.60
2022-10-24T04:08:20.729Z,1.70
2022-10-24T04:11:23.149Z,1.63
2022-10-24T04:14:25.516Z,1.60
2022-10-24T04:17:27.910Z,1.58
2022-10-24T04:20:31.710Z,1.20
2022-10-24T04:23:38.497Z,1.45
2022-10-24T04:26:40.990Z,1.23
2022-10-24T04:29:43.347Z,1.58
2022-10-24T04:32:46.087Z,1.15
2022-10-24T04:35:50.838Z,1.33
2022-10-24T04:38:53.385Z,0.98
2022-10-24T04:41:55.801Z,1.40
2022-10-24T04:44:58.154Z,1.08
2022-10-24T04:48:00.538Z,1.25
2022-10-24T04:51:05.640Z,1.60
2022-10-24T04:54:08.440Z,1.25
2022-10-24T04:57:11.774Z,1.63
2022-10-24T05:00:15.212Z,1.20
2022-10-24T05:03:18.133Z,1.10
2022-10-24T05:06:21.936Z,1.13
2022-10-24T05:09:24.412Z,0.98
2022-10-24T05:12:27.015Z,1.20
2022-10-24T05:15:30.244Z,1.33
2022-10-24T05:18:32.829Z,0.93
2022-10-24T05:21:36.644Z,0.80
2022-10-24T05:24:39.187Z,1.15
2022-10-24T05:27:41.596Z,0.88
2022-10-24T05:30:44.098Z,1.33
2022-10-24T05:33:46.448Z,1.05
2022-10-24T05:36:50.510Z,1.30
2022-10-24T05:39:52.958Z,0.82
2022-10-24T05:42:55.521Z,1.20
2022-10-24T05:45:58.227Z,1.38
2022-10-24T05:49:00.539Z,0.80
2022-10-24T05:52:04.474Z,1.23
2022-10-24T05:55:08.467Z,1.30
2022-10-24T05:58:11.013Z,1.23
2022-10-24T06:01:13.478Z,1.10
2022-10-24T06:04:16.000Z,1.45
2022-10-24T06:07:19.769Z,1.23
2022-10-24T06:10:22.508Z,1.50
2022-10-24T06:13:24.929Z,1.55
2022-10-24T06:16:30.197Z,1.00
2022-10-24T06:19:33.106Z,1.35
2022-10-24T06:22:37.410Z,1.00
2022-10-24T06:25:40.541Z,0.90
2022-10-24T06:28:43.139Z,1.30
2022-10-24T06:31:45.593Z,1.65
2022-10-24T06:34:48.081Z,0.98
2022-10-24T06:37:52.094Z,1.17
2022-10-24T06:40:54.607Z,0.90
2022-10-24T06:43:57.293Z,1.05
2022-10-24T06:46:59.794Z,1.10
2022-10-24T06:50:02.103Z,1.10
2022-10-24T06:53:06.041Z,1.42
2022-10-24T06:56:08.608Z,1.10
2022-10-24T06:59:11.735Z,1.08
2022-10-24T07:02:15.279Z,1.70
2022-10-24T07:05:17.808Z,1.50
2022-10-24T07:08:21.648Z,1.17
2022-10-24T07:11:24.529Z,1.17
2022-10-24T07:14:26.874Z,1.10
2022-10-24T07:17:30.012Z,1.20
2022-10-24T07:20:32.404Z,0.90
2022-10-24T07:23:36.190Z,1.40
2022-10-24T07:26:39.416Z,0.85
2022-10-24T07:29:41.948Z,1.27
2022-10-24T07:32:44.814Z,1.05
2022-10-24T07:35:47.515Z,1.27
2022-10-24T07:38:52.611Z,0.90
2022-10-24T07:41:55.079Z,1.05
2022-10-24T07:44:57.475Z,1.20
2022-10-24T07:48:00.089Z,1.00
2022-10-24T07:51:05.699Z,1.05
2022-10-24T07:54:09.490Z,0.98
2022-10-24T07:57:11.864Z,0.85
2022-10-24T08:00:15.552Z,1.40
2022-10-24T08:03:17.920Z,1.08
2022-10-24T08:06:23.011Z,1.10
2022-10-24T08:09:26.782Z,0.73
2022-10-24T08:12:29.297Z,0.90
2022-10-24T08:15:31.656Z,0.65
2022-10-24T08:18:38.619Z,0.70
2022-10-24T08:21:42.198Z,0.85
2022-10-24T08:24:46.065Z,0.60
2022-10-24T08:27:48.512Z,1.00
2022-10-24T08:30:57.885Z,0.68
2022-10-24T08:34:00.309Z,0.70
2022-10-24T08:37:03.898Z,0.77
2022-10-24T08:40:13.077Z,0.60
2022-10-24T08:43:17.006Z,0.95
2022-10-24T08:46:37.611Z,0.63
2022-10-24T08:49:46.436Z,0.88
2022-10-24T08:52:56.721Z,0.80
2022-10-24T08:56:01.838Z,0.90
2022-10-24T08:59:05.132Z,0.90
2022-10-24T09:02:15.536Z,1.10
2022-10-24T09:05:23.222Z,0.70
2022-10-24T09:08:30.460Z,1.08
2022-10-24T09:11:42.100Z,1.00
2022-10-24T09:14:45.818Z,1.20
2022-10-24T09:17:48.956Z,1.00
2022-10-24T09:20:52.318Z,0.95
2022-10-24T09:23:54.947Z,0.98
2022-10-24T09:27:00.482Z,1.70
2022-10-24T09:30:05.625Z,1.10
2022-10-24T09:33:25.336Z,1.00
2022-10-24T09:36:30.050Z,1.45
2022-10-24T09:39:34.772Z,1.38
2022-10-24T09:42:39.216Z,1.00
2022-10-24T09:45:42.210Z,1.23
2022-10-24T09:49:17.042Z,1.00
2022-10-24T09:52:21.655Z,0.88
2022-10-24T09:55:28.530Z,1.05
2022-10-24T09:58:35.647Z,1.48
2022-10-24T10:01:38.141Z,1.42
2022-10-24T10:04:41.487Z,1.10
2022-10-24T10:07:48.434Z,1.38
2022-10-24T10:11:02.502Z,1.48
2022-10-24T10:14:19.976Z,1.15
2022-10-24T10:17:25.594Z,1.58
2022-10-24T10:20:31.574Z,1.05
2022-10-24T10:23:36.383Z,1.27
2022-10-24T10:26:44.122Z,0.75
2022-10-24T10:29:47.755Z,0.85
2022-10-24T10:33:10.185Z,1.48
2022-10-24T10:36:17.509Z,0.80
2022-10-24T10:39:28.699Z,1.92
2022-10-24T10:42:35.528Z,0.93
2022-10-24T10:45:42.337Z,0.90
2022-10-24T10:48:55.878Z,0.93
2022-10-24T10:52:01.155Z,0.93
2022-10-24T10:55:15.578Z,1.75
2022-10-24T10:58:25.427Z,0.90
2022-10-24T11:01:34.059Z,1.00
2022-10-24T11:04:40.663Z,0.98
2022-10-24T11:07:46.559Z,0.70
2022-10-24T11:10:51.992Z,0.63
2022-10-24T11:13:58.268Z,0.57
2022-10-24T11:17:11.291Z,1.75
2022-10-24T11:20:18.075Z,0.80
2022-10-24T11:23:24.296Z,0.90
2022-10-24T11:26:31.143Z,1.02
2022-10-24T11:29:37.254Z,0.55
2022-10-24T11:32:44.685Z,1.15
2022-10-24T11:36:02.071Z,1.20
2022-10-24T11:39:11.850Z,1.38
2022-10-24T11:42:18.280Z,0.63
2022-10-24T11:45:22.128Z,1.17
2022-10-24T11:48:30.687Z,1.75
2022-10-24T11:51:36.145Z,1.20
2022-10-24T11:54:42.902Z,0.77
2022-10-24T11:57:48.224Z,1.58
2022-10-24T12:01:15.823Z,1.35
2022-10-24T12:04:42.792Z,1.00
2022-10-24T12:08:05.496Z,1.08
2022-10-24T12:11:27.562Z,1.23
2022-10-24T12:14:45.211Z,0.73
2022-10-24T12:18:00.925Z,1.60
2022-10-24T12:21:06.934Z,1.10
2022-10-24T12:24:20.447Z,1.58
2022-10-24T12:27:29.424Z,0.82
2022-10-24T12:30:34.025Z,0.93
2022-10-24T12:33:36.431Z,0.60
2022-10-24T12:37:02.809Z,0.70
2022-10-24T12:40:41.014Z,0.50
2022-10-24T12:43:44.526Z,1.25
2022-10-24T12:46:54.492Z,1.00
2022-10-24T12:49:57.894Z,0.95
2022-10-24T12:53:19.554Z,0.82
2022-10-24T12:59:26.531Z,0.82
2022-10-24T13:02:52.601Z,1.05
2022-10-24T13:06:00.293Z,1.27
2022-10-24T13:09:18.026Z,0.63
2022-10-24T13:12:37.329Z,1.05
2022-10-24T13:15:44.208Z,0.90
2022-10-24T13:18:58.178Z,0.40
2022-10-24T13:22:01.982Z,0.77
2022-10-24T13:25:35.296Z,0.70
2022-10-24T13:28:42.281Z,1.00
2022-10-24T13:31:47.931Z,0.98
2022-10-24T13:34:53.958Z,1.00
2022-10-24T13:38:00.506Z,1.25
2022-10-24T13:41:05.382Z,0.60
2022-10-24T13:44:18.804Z,0.80
2022-10-24T13:47:23.315Z,0.70
2022-10-24T13:50:29.014Z,0.70
2022-10-24T13:53:34.852Z,1.23
2022-10-24T13:56:40.070Z,1.83
2022-10-24T13:59:42.404Z,0.52
2022-10-24T14:02:45.207Z,1.27
2022-10-24T14:05:50.188Z,0.85
2022-10-24T14:09:04.221Z,0.60
2022-10-24T14:12:18.939Z,0.70
2022-10-24T14:15:22.772Z,0.60
2022-10-24T14:18:25.065Z,0.60
2022-10-24T14:21:27.304Z,0.60
2022-10-24T14:24:30.652Z,0.57
2022-10-24T14:27:35.261Z,0.63
2022-10-24T14:30:37.649Z,0.60
2022-10-24T14:33:43.521Z,1.08
2022-10-24T14:36:45.886Z,0.70
2022-10-24T14:39:49.548Z,1.08
2022-10-24T14:42:55.848Z,0.60
2022-10-24T14:46:32.945Z,0.45
2022-10-24T14:49:36.745Z,0.77
2022-10-24T14:52:42.414Z,0.82
2022-10-24T14:55:50.042Z,0.50
2022-10-24T14:58:55.229Z,0.63
2022-10-24T15:01:59.423Z,0.82
2022-10-24T15:05:37.191Z,0.82
2022-10-24T15:11:46.391Z,1.00
2022-10-24T15:14:51.727Z,1.75
2022-10-24T15:17:58.448Z,1.73
2022-10-24T15:21:03.308Z,0.73
2022-10-24T15:24:06.570Z,0.70
2022-10-24T15:27:10.130Z,0.55
2022-10-24T15:30:17.166Z,0.90
2022-10-24T15:33:19.424Z,1.02
2022-10-24T15:36:24.522Z,1.00
2022-10-24T15:39:27.375Z,1.25
2022-10-24T15:42:29.717Z,0.73
2022-10-24T15:45:33.328Z,1.58
2022-10-24T15:48:35.638Z,0.63
2022-10-24T15:51:38.612Z,0.70
2022-10-24T15:54:42.073Z,0.90
2022-10-24T15:57:44.410Z,0.82
2022-10-24T16:00:50.961Z,0.88
2022-10-24T16:03:53.479Z,1.63
2022-10-24T16:06:55.878Z,1.60
2022-10-24T16:09:58.245Z,0.70
2022-10-24T16:13:02.923Z,1.20
2022-10-24T16:16:07.670Z,0.80
2022-10-24T16:19:10.603Z,1.00
2022-10-24T16:22:12.894Z,1.10
2022-10-24T16:25:17.046Z,1.25
2022-10-24T16:28:22.876Z,1.65
2022-10-24T16:31:28.715Z,1.10
2022-10-24T16:34:30.931Z,0.90
2022-10-24T16:37:33.264Z,1.02
2022-10-24T16:40:38.575Z,1.08
2022-10-24T16:43:42.600Z,1.00
2022-10-24T16:46:47.850Z,1.10
2022-10-24T16:49:55.113Z,1.20
2022-10-24T16:53:00.450Z,1.23
2022-10-24T16:56:02.718Z,0.60
2022-10-24T16:59:04.998Z,0.70
2022-10-24T17:02:10.284Z,1.00
2022-10-24T17:05:12.948Z,0.73
2022-10-24T17:08:15.822Z,2.13
2022-10-24T17:11:43.237Z,1.00
2022-10-24T17:14:40.367Z,1.30
2022-10-24T17:17:44.328Z,1.10
2022-10-24T17:20:47.094Z,4.85
2022-10-24T17:23:52.042Z,1.00
2022-10-24T17:26:54.975Z,1.00
2022-10-24T17:29:59.478Z,1.35
2022-10-24T17:33:03.316Z,1.45
2022-10-24T17:36:07.472Z,1.10
2022-10-24T17:39:13.403Z,0.90
2022-10-24T17:42:16.201Z,1.55
2022-10-24T17:45:20.678Z,1.17
2022-10-24T17:48:26.066Z,1.00
2022-10-24T17:51:28.335Z,1.55
2022-10-24T17:54:30.563Z,1.15
2022-10-24T17:57:32.742Z,1.10
2022-10-24T18:00:35.144Z,1.20
2022-10-24T18:03:38.963Z,1.23
2022-10-24T18:06:43.462Z,1.38
2022-10-24T18:09:45.810Z,1.27
2022-10-24T18:12:48.024Z,1.40
2022-10-24T18:15:50.322Z,1.63
2022-10-24T18:18:55.426Z,1.92
2022-10-24T18:21:57.695Z,1.00
2022-10-24T18:24:59.954Z,2.13
2022-10-24T18:28:02.236Z,1.55
2022-10-24T18:31:08.521Z,1.38
2022-10-24T18:34:12.402Z,1.08
2022-10-24T18:37:14.874Z,1.35
2022-10-24T18:40:17.645Z,1.65
2022-10-24T18:43:20.142Z,1.40
2022-10-24T18:46:23.584Z,1.40
2022-10-24T18:49:27.852Z,0.80
2022-10-24T18:52:37.934Z,1.25
2022-10-24T18:55:41.422Z,1.15
2022-10-24T18:58:43.868Z,1.40
2022-10-24T19:01:55.445Z,0.85
2022-10-24T19:08:11.826Z,1.52
2022-10-24T19:11:15.324Z,1.48
2022-10-24T19:14:18.218Z,1.27
2022-10-24T19:17:20.902Z,2.08
2022-10-24T19:20:24.837Z,2.00
2022-10-24T19:23:27.529Z,1.08
2022-10-24T19:26:29.899Z,1.00
2022-10-24T19:29:32.161Z,1.40
2022-10-24T19:32:34.694Z,1.33
2022-10-24T19:35:40.149Z,1.45
2022-10-24T19:38:42.510Z,1.20
2022-10-24T19:41:44.848Z,0.88
2022-10-24T19:47:55.725Z,1.48
2022-10-24T19:51:03.268Z,1.02
2022-10-24T19:54:05.971Z,1.15
2022-10-24T19:57:08.367Z,1.17
2022-10-24T20:00:12.203Z,1.63
2022-10-24T20:03:16.038Z,1.67
2022-10-24T20:06:19.815Z,0.95
2022-10-24T20:09:22.001Z,1.40
2022-10-24T20:12:24.530Z,1.20
2022-10-24T20:15:28.256Z,1.20
2022-10-24T20:18:32.126Z,1.25
2022-10-24T20:21:37.658Z,1.77
2022-10-24T20:24:40.000Z,2.08
2022-10-24T20:27:42.466Z,1.60
2022-10-24T20:30:46.604Z,1.38
2022-10-24T20:33:48.902Z,1.50
2022-10-24T20:36:52.476Z,1.50
2022-10-24T20:39:54.681Z,1.27
2022-10-24T20:42:57.051Z,1.30
2022-10-24T20:45:59.418Z,1.80
2022-10-24T20:49:02.768Z,1.45
2022-10-24T20:52:07.086Z,1.23
2022-10-24T20:55:19.751Z,1.15
2022-10-24T20:58:33.432Z,1.15
2022-10-24T21:01:35.809Z,1.15
2022-10-24T21:04:38.278Z,1.17
2022-10-24T21:07:41.861Z,1.60
2022-10-24T21:10:44.222Z,1.00
2022-10-24T21:13:46.416Z,1.70
2022-10-24T21:16:48.772Z,1.77
2022-10-24T21:19:51.690Z,2.55
2022-10-24T21:22:55.850Z,1.08
2022-10-24T21:26:01.970Z,1.50
2022-10-24T21:29:15.088Z,2.13
2022-10-24T21:32:26.798Z,1.60
2022-10-24T21:35:29.125Z,2.35
2022-10-24T21:38:32.936Z,2.30
2022-10-24T21:41:35.150Z,1.48
2022-10-24T21:44:37.683Z,1.80
2022-10-24T21:47:39.913Z,1.85
2022-10-24T21:50:42.312Z,0.98
2022-10-24T21:53:48.738Z,1.27
2022-10-24T21:56:51.114Z,1.10
2022-10-24T21:59:53.371Z,1.40
2022-10-24T22:02:55.580Z,1.42
2022-10-24T22:05:57.825Z,1.20
2022-10-24T22:09:02.204Z,1.20
2022-10-24T22:12:05.001Z,1.95
2022-10-24T22:15:08.111Z,1.20
2022-10-24T22:18:10.283Z,1.35
2022-10-24T22:21:19.905Z,1.50
2022-10-24T22:24:24.079Z,1.67
2022-10-24T22:27:26.304Z,1.25
2022-10-24T22:30:28.486Z,1.50
2022-10-24T22:33:33.130Z,1.17
2022-10-24T22:36:44.860Z,1.60
2022-10-24T22:39:49.042Z,1.20
2022-10-24T22:42:51.791Z,3.33
2022-10-24T22:46:02.108Z,1.35
2022-10-24T22:49:07.954Z,1.33
2022-10-24T22:52:11.419Z,1.98
2022-10-24T22:55:18.671Z,1.50
2022-10-24T22:58:21.457Z,1.13
2022-10-24T23:01:32.707Z,1.23
2022-10-24T23:04:39.037Z,0.95
2022-10-24T23:07:47.494Z,0.98
2022-10-24T23:10:51.839Z,1.95
2022-10-24T23:13:54.573Z,0.60
2022-10-24T23:16:59.168Z,1.00
2022-10-24T23:20:02.068Z,1.08
2022-10-24T23:23:17.024Z,1.08
2022-10-24T23:26:33.803Z,1.23
2022-10-24T23:29:36.978Z,0.77
2022-10-24T23:32:39.334Z,2.50
2022-10-24T23:35:42.441Z,1.40
2022-10-24T23:38:45.305Z,1.35
2022-10-24T23:41:49.823Z,0.98
2022-10-24T23:44:52.984Z,1.00
2022-10-24T23:48:03.694Z,1.83
2022-10-24T23:51:09.394Z,1.55
2022-10-24T23:54:12.881Z,1.02
2022-10-24T23:57:18.473Z,1.35
